createdAt,value
2024-02-16T00:01:51.568Z,7.38
2024-02-16T00:04:18.037Z,8.02
2024-02-16T00:06:44.602Z,8.05
2024-02-16T00:09:11.540Z,7.32
2024-02-16T00:11:38.578Z,7.38
2024-02-16T00:14:05.196Z,7.20
2024-02-16T00:16:31.946Z,8.40
2024-02-16T00:18:58.839Z,7.30
2024-02-16T00:21:25.736Z,8.07
2024-02-16T00:23:52.576Z,7.90
2024-02-16T00:26:19.160Z,5.38
2024-02-16T00:28:48.549Z,7.15
2024-02-16T00:31:15.109Z,7.18
2024-02-16T00:33:42.920Z,6.22
2024-02-16T00:36:11.159Z,5.35
2024-02-16T00:38:37.940Z,5.20
2024-02-16T00:41:05.904Z,4.80
2024-02-16T00:43:32.701Z,4.88
2024-02-16T00:45:59.261Z,5.03
2024-02-16T00:48:25.851Z,3.80
2024-02-16T00:50:52.534Z,4.05
2024-02-16T00:53:20.358Z,2.60
2024-02-16T00:55:47.351Z,3.65
2024-02-16T00:58:13.982Z,3.92
2024-02-16T01:00:40.654Z,3.50
2024-02-16T01:03:07.785Z,2.67
2024-02-16T01:05:34.416Z,3.83
2024-02-16T01:08:01.109Z,3.58
2024-02-16T01:10:27.611Z,2.90
2024-02-16T01:12:56.207Z,3.00
2024-02-16T01:15:22.865Z,3.05
2024-02-16T01:17:49.604Z,3.20
2024-02-16T01:20:16.427Z,3.30
2024-02-16T01:22:42.969Z,2.85
2024-02-16T01:25:09.824Z,2.85
2024-02-16T01:27:37.525Z,3.33
2024-02-16T01:30:04.892Z,3.50
2024-02-16T01:32:31.681Z,3.17
2024-02-16T01:34:59.365Z,2.88
2024-02-16T01:37:26.170Z,3.17
2024-02-16T01:39:52.826Z,3.47
2024-02-16T01:42:19.948Z,2.58
2024-02-16T01:44:46.743Z,3.00
2024-02-16T01:47:13.449Z,3.17
2024-02-16T01:49:40.212Z,3.10
2024-02-16T01:52:06.912Z,3.08
2024-02-16T01:54:33.940Z,3.28
2024-02-16T01:57:02.200Z,2.35
2024-02-16T01:59:30.134Z,2.75
2024-02-16T02:01:56.738Z,4.18
2024-02-16T02:04:24.097Z,3.85
2024-02-16T02:06:50.820Z,3.53
2024-02-16T02:09:17.426Z,4.15
2024-02-16T02:11:44.970Z,4.25
2024-02-16T02:14:11.412Z,3.50
2024-02-16T02:16:44.981Z,4.38
2024-02-16T02:19:18.179Z,4.47
2024-02-16T02:21:45.015Z,4.20
2024-02-16T02:24:12.041Z,5.10
2024-02-16T02:26:39.125Z,6.00
2024-02-16T02:29:05.971Z,5.05
2024-02-16T02:31:32.471Z,3.83
2024-02-16T02:33:59.031Z,4.38
2024-02-16T02:36:26.114Z,3.85
2024-02-16T02:38:52.600Z,4.60
2024-02-16T02:41:23.981Z,3.60
2024-02-16T02:43:50.935Z,3.53
2024-02-16T02:46:18.100Z,3.53
2024-02-16T02:48:52.205Z,3.78
2024-02-16T02:51:19.618Z,3.60
2024-02-16T02:53:49.352Z,3.40
2024-02-16T02:56:15.821Z,4.15
2024-02-16T02:58:42.371Z,3.53
2024-02-16T03:01:09.372Z,3.40
2024-02-16T03:03:37.071Z,2.55
2024-02-16T03:06:04.788Z,3.80
2024-02-16T03:08:31.773Z,2.88
2024-02-16T03:11:01.836Z,2.90
2024-02-16T03:13:28.673Z,2.40
2024-02-16T03:15:55.345Z,3.00
2024-02-16T03:18:22.031Z,2.35
2024-02-16T03:20:51.114Z,2.25
2024-02-16T03:23:17.724Z,2.83
2024-02-16T03:25:44.187Z,3.35
2024-02-16T03:28:14.142Z,2.90
2024-02-16T03:30:41.191Z,3.58
2024-02-16T03:33:08.145Z,3.03
2024-02-16T03:35:34.682Z,3.00
2024-02-16T03:38:01.346Z,2.70
2024-02-16T03:40:28.868Z,2.90
2024-02-16T03:42:55.467Z,3.47
2024-02-16T03:45:22.942Z,2.47
2024-02-16T03:47:55.706Z,2.85
2024-02-16T03:50:23.459Z,2.88
2024-02-16T03:52:50.092Z,1.92
2024-02-16T03:55:16.595Z,1.85
2024-02-16T03:57:43.215Z,2.03
2024-02-16T04:00:10.010Z,2.35
2024-02-16T04:02:41.381Z,2.13
2024-02-16T04:05:09.078Z,2.53
2024-02-16T04:07:36.387Z,3.22
2024-02-16T04:10:02.904Z,1.90
2024-02-16T04:12:29.510Z,1.92
2024-02-16T04:14:59.797Z,2.05
2024-02-16T04:17:26.303Z,1.88
2024-02-16T04:19:53.269Z,2.22
2024-02-16T04:22:19.893Z,2.47
2024-02-16T04:24:47.104Z,2.17
2024-02-16T04:27:13.650Z,2.40
2024-02-16T04:29:40.264Z,2.30
2024-02-16T04:32:06.781Z,2.30
2024-02-16T04:34:33.363Z,2.50
2024-02-16T04:36:59.923Z,1.80
2024-02-16T04:39:26.452Z,1.95
2024-02-16T04:41:54.579Z,2.40
2024-02-16T04:44:21.266Z,2.20
2024-02-16T04:46:47.729Z,2.35
2024-02-16T04:49:14.367Z,1.88
2024-02-16T04:51:41.561Z,1.95
2024-02-16T04:54:11.070Z,2.53
2024-02-16T04:56:37.890Z,2.10
2024-02-16T04:59:04.352Z,2.22
2024-02-16T05:01:31.053Z,1.90
2024-02-16T05:03:58.166Z,2.85
2024-02-16T05:06:25.970Z,1.95
2024-02-16T05:08:52.804Z,1.98
2024-02-16T05:11:19.611Z,1.90
2024-02-16T05:13:46.446Z,2.50
2024-02-16T05:16:13.057Z,1.90
2024-02-16T05:18:40.978Z,2.10
2024-02-16T05:21:07.561Z,1.90
2024-02-16T05:23:34.061Z,1.90
2024-02-16T05:26:03.022Z,2.20
2024-02-16T05:28:30.288Z,2.15
2024-02-16T05:30:56.962Z,1.42
2024-02-16T05:33:24.289Z,1.67
2024-02-16T05:35:56.341Z,1.92
2024-02-16T05:38:33.615Z,1.80
2024-02-16T05:41:01.073Z,1.80
2024-02-16T05:43:27.684Z,2.22
2024-02-16T05:45:54.561Z,1.75
2024-02-16T05:48:21.242Z,1.50
2024-02-16T05:50:48.069Z,2.72
2024-02-16T05:53:14.649Z,2.00
2024-02-16T05:55:41.391Z,2.10
2024-02-16T05:58:08.167Z,1.98
2024-02-16T06:00:36.269Z,1.63
2024-02-16T06:03:03.768Z,2.00
2024-02-16T06:05:30.601Z,2.17
2024-02-16T06:07:58.463Z,2.05
2024-02-16T06:10:25.249Z,1.70
2024-02-16T06:12:51.730Z,3.25
2024-02-16T06:15:18.522Z,2.30
2024-02-16T06:17:45.207Z,2.20
2024-02-16T06:20:12.474Z,2.80
2024-02-16T06:22:39.559Z,2.47
2024-02-16T06:25:08.468Z,2.17
2024-02-16T06:27:36.269Z,1.98
2024-02-16T06:30:05.123Z,2.63
2024-02-16T06:32:32.598Z,1.65
2024-02-16T06:34:59.214Z,1.75
2024-02-16T06:37:25.999Z,2.20
2024-02-16T06:39:52.428Z,2.10
2024-02-16T06:42:18.947Z,2.22
2024-02-16T06:44:45.442Z,2.38
2024-02-16T06:47:12.519Z,2.42
2024-02-16T06:49:38.953Z,1.73
2024-02-16T06:52:06.642Z,1.92
2024-02-16T06:54:33.368Z,2.00
2024-02-16T06:56:59.981Z,1.83
2024-02-16T06:59:26.690Z,2.00
2024-02-16T07:01:53.119Z,2.00
2024-02-16T07:04:19.630Z,2.40
2024-02-16T07:06:46.314Z,2.88
2024-02-16T07:09:16.385Z,3.13
2024-02-16T07:11:43.692Z,3.25
2024-02-16T07:14:10.344Z,3.70
2024-02-16T07:16:37.041Z,3.15
2024-02-16T07:19:03.870Z,2.80
2024-02-16T07:21:30.527Z,2.67
2024-02-16T07:23:57.231Z,3.42
2024-02-16T07:26:23.834Z,3.33
2024-02-16T07:28:50.288Z,2.40
2024-02-16T07:31:17.427Z,2.70
2024-02-16T07:33:44.137Z,2.67
2024-02-16T07:36:10.973Z,3.35
2024-02-16T07:38:37.501Z,4.20
2024-02-16T07:41:07.349Z,3.67
2024-02-16T07:43:35.663Z,2.40
2024-02-16T07:46:02.243Z,3.13
2024-02-16T07:48:29.912Z,2.50
2024-02-16T07:50:59.166Z,3.08
2024-02-16T07:53:25.629Z,2.38
2024-02-16T07:55:52.157Z,4.20
2024-02-16T07:58:18.830Z,3.47
2024-02-16T08:00:45.474Z,3.17
2024-02-16T08:03:12.075Z,3.10
2024-02-16T08:05:38.683Z,2.30
2024-02-16T08:08:05.320Z,2.67
2024-02-16T08:10:32.117Z,2.80
2024-02-16T08:12:59.107Z,2.38
2024-02-16T08:15:26.985Z,2.30
2024-02-16T08:17:53.814Z,2.67
2024-02-16T08:20:21.974Z,2.55
2024-02-16T08:22:48.622Z,3.20
2024-02-16T08:25:15.186Z,2.15
2024-02-16T08:27:41.808Z,2.28
2024-02-16T08:30:10.387Z,2.65
2024-02-16T08:32:37.327Z,2.40
2024-02-16T08:35:04.559Z,4.38
2024-02-16T08:37:31.596Z,2.15
2024-02-16T08:39:58.284Z,2.42
2024-02-16T08:42:25.086Z,2.75
2024-02-16T08:44:52.074Z,2.65
2024-02-16T08:47:19.704Z,2.80
2024-02-16T08:49:46.284Z,2.97
2024-02-16T08:52:12.939Z,2.65
2024-02-16T08:54:42.432Z,2.50
2024-02-16T08:57:09.008Z,2.60
2024-02-16T08:59:35.686Z,2.83
2024-02-16T09:02:02.486Z,2.75
2024-02-16T09:04:29.126Z,2.42
2024-02-16T09:06:55.835Z,1.50
2024-02-16T09:09:22.557Z,2.22
2024-02-16T09:11:49.020Z,2.50
2024-02-16T09:14:15.477Z,2.65
2024-02-16T09:16:41.940Z,2.22
2024-02-16T09:19:08.756Z,3.35
2024-02-16T09:21:35.484Z,2.47
2024-02-16T09:24:02.985Z,2.20
2024-02-16T09:26:34.819Z,2.40
2024-02-16T09:29:01.687Z,2.25
2024-02-16T09:31:28.249Z,2.45
2024-02-16T09:33:55.668Z,2.75
2024-02-16T09:36:23.104Z,2.78
2024-02-16T09:38:49.984Z,2.80
2024-02-16T09:41:20.018Z,4.43
2024-02-16T09:43:47.022Z,4.20
2024-02-16T09:46:14.065Z,5.85
2024-02-16T09:48:47.740Z,4.40
2024-02-16T09:51:14.401Z,4.18
2024-02-16T09:53:44.117Z,3.20
2024-02-16T09:56:12.980Z,3.45
2024-02-16T09:58:39.462Z,2.40
2024-02-16T10:01:06.006Z,3.20
2024-02-16T10:03:36.462Z,2.97
2024-02-16T10:06:08.162Z,3.00
2024-02-16T10:11:03.446Z,2.90
2024-02-16T10:13:29.983Z,2.90
2024-02-16T10:16:13.081Z,2.75
2024-02-16T10:18:40.054Z,2.90
2024-02-16T10:21:06.888Z,2.90
2024-02-16T10:26:03.569Z,2.67
2024-02-16T10:28:32.141Z,2.85
2024-02-16T10:31:00.606Z,2.85
2024-02-16T10:33:29.359Z,3.20
2024-02-16T10:35:57.216Z,3.95
2024-02-16T10:38:24.292Z,4.15
2024-02-16T10:40:52.144Z,4.45
2024-02-16T10:43:19.115Z,3.70
2024-02-16T10:45:48.472Z,3.30
2024-02-16T10:48:16.717Z,3.45
2024-02-16T10:50:43.440Z,3.03
2024-02-16T10:53:18.580Z,4.18
2024-02-16T10:55:45.432Z,4.57
2024-02-16T10:58:12.048Z,3.20
2024-02-16T11:00:49.333Z,3.75
2024-02-16T11:03:18.151Z,4.22
2024-02-16T11:05:46.835Z,3.80
2024-02-16T11:08:14.389Z,3.72
2024-02-16T11:10:41.005Z,3.03
2024-02-16T11:13:08.712Z,3.33
2024-02-16T11:15:41.967Z,2.78
2024-02-16T11:18:11.841Z,2.53
2024-02-16T11:20:48.111Z,2.58
2024-02-16T11:23:15.947Z,2.95
2024-02-16T11:25:52.857Z,2.50
2024-02-16T11:28:19.506Z,3.65
2024-02-16T11:30:46.026Z,2.20
2024-02-16T11:33:15.370Z,2.33
2024-02-16T11:35:42.041Z,1.98
2024-02-16T11:38:11.047Z,2.50
2024-02-16T11:43:50.572Z,1.77
2024-02-16T11:46:19.028Z,1.95
2024-02-16T11:48:45.878Z,2.28
2024-02-16T11:51:16.187Z,2.28
2024-02-16T11:53:42.743Z,2.00
2024-02-16T11:56:09.201Z,2.55
2024-02-16T11:58:35.858Z,2.40
2024-02-16T12:01:04.075Z,2.38
2024-02-16T12:03:31.369Z,2.60
2024-02-16T12:05:58.937Z,2.35
2024-02-16T12:08:32.755Z,3.83
2024-02-16T12:10:59.411Z,2.42
2024-02-16T12:13:26.035Z,3.83
2024-02-16T12:15:53.039Z,2.28
2024-02-16T12:18:22.920Z,2.33
2024-02-16T12:21:03.133Z,2.00
2024-02-16T12:23:31.973Z,2.22
2024-02-16T12:25:58.988Z,2.72
2024-02-16T12:28:26.711Z,1.95
2024-02-16T12:30:53.173Z,4.10
2024-02-16T12:33:19.722Z,2.83
2024-02-16T12:35:46.248Z,2.60
2024-02-16T12:38:12.774Z,2.55
2024-02-16T12:41:03.646Z,3.35
2024-02-16T12:43:30.311Z,3.60
2024-02-16T12:45:57.667Z,4.20
2024-02-16T12:48:24.476Z,2.90
2024-02-16T12:50:52.498Z,2.45
2024-02-16T12:53:19.089Z,3.75
2024-02-16T12:55:45.576Z,4.95
2024-02-16T12:58:12.528Z,2.88
2024-02-16T13:00:39.432Z,3.38
2024-02-16T13:03:06.047Z,2.55
2024-02-16T13:05:34.158Z,3.95
2024-02-16T13:08:01.201Z,2.28
2024-02-16T13:10:28.123Z,3.20
2024-02-16T13:12:54.600Z,2.13
2024-02-16T13:15:28.097Z,2.20
2024-02-16T13:17:56.623Z,1.58
2024-02-16T13:20:23.661Z,1.80
2024-02-16T13:22:50.354Z,1.80
2024-02-16T13:25:17.205Z,1.52
2024-02-16T13:27:44.122Z,1.77
2024-02-16T13:30:11.137Z,2.28
2024-02-16T13:32:41.108Z,2.75
2024-02-16T13:35:08.133Z,2.33
2024-02-16T13:37:35.149Z,2.08
2024-02-16T13:40:05.370Z,1.98
2024-02-16T13:42:32.422Z,2.17
2024-02-16T13:44:59.501Z,2.35
2024-02-16T13:47:26.125Z,2.92
2024-02-16T13:49:53.607Z,2.25
2024-02-16T13:52:20.397Z,2.13
2024-02-16T13:54:47.800Z,2.05
2024-02-16T13:57:14.470Z,2.42
2024-02-16T13:59:42.605Z,2.00
2024-02-16T14:02:09.433Z,1.80
2024-02-16T14:04:37.094Z,2.50
2024-02-16T14:07:04.768Z,3.08
2024-02-16T14:09:34.224Z,2.15
2024-02-16T14:12:02.262Z,2.22
2024-02-16T14:14:36.670Z,1.48
2024-02-16T14:17:05.305Z,2.05
2024-02-16T14:19:32.348Z,2.33
2024-02-16T14:21:59.038Z,2.25
2024-02-16T14:24:26.707Z,1.90
2024-02-16T14:26:55.239Z,2.10
2024-02-16T14:29:22.535Z,3.10
2024-02-16T14:31:50.405Z,2.15
2024-02-16T14:34:17.351Z,2.10
2024-02-16T14:36:44.175Z,2.35
2024-02-16T14:39:12.793Z,2.30
2024-02-16T14:41:39.360Z,2.90
2024-02-16T14:44:05.866Z,2.17
2024-02-16T14:46:32.345Z,2.40
2024-02-16T14:48:59.047Z,1.77
2024-02-16T14:51:25.755Z,2.08
2024-02-16T14:53:52.689Z,1.80
2024-02-16T14:56:22.791Z,2.35
2024-02-16T14:58:49.511Z,2.22
2024-02-16T15:01:16.659Z,1.88
2024-02-16T15:03:43.418Z,2.30
2024-02-16T15:06:10.040Z,2.35
2024-02-16T15:08:36.650Z,3.65
2024-02-16T15:11:03.307Z,4.10
2024-02-16T15:13:31.776Z,2.78
2024-02-16T15:15:58.470Z,1.95
2024-02-16T15:18:25.261Z,1.95
2024-02-16T15:20:55.002Z,3.90
2024-02-16T15:23:22.188Z,2.75
2024-02-16T15:25:48.668Z,2.05
2024-02-16T15:28:15.337Z,2.42
2024-02-16T15:30:41.873Z,2.90
2024-02-16T15:33:08.546Z,3.13
2024-02-16T15:35:35.260Z,3.05
2024-02-16T15:38:01.808Z,3.85
2024-02-16T15:40:28.378Z,3.05
2024-02-16T15:43:04.731Z,2.67
2024-02-16T15:45:31.491Z,3.58
2024-02-16T15:47:58.358Z,3.20
2024-02-16T15:50:26.787Z,2.10
2024-02-16T15:52:53.639Z,2.13
2024-02-16T15:55:20.818Z,2.20
2024-02-16T15:57:47.605Z,2.20
2024-02-16T16:00:14.641Z,1.98
2024-02-16T16:02:41.235Z,1.67
2024-02-16T16:05:08.214Z,2.05
2024-02-16T16:07:34.932Z,2.15
2024-02-16T16:10:01.533Z,2.10
2024-02-16T16:12:28.147Z,2.20
2024-02-16T16:14:54.844Z,2.03
2024-02-16T16:17:21.667Z,2.15
2024-02-16T16:19:48.132Z,4.03
2024-02-16T16:22:14.824Z,2.95
2024-02-16T16:24:44.777Z,2.90
2024-02-16T16:27:13.470Z,2.85
2024-02-16T16:29:40.218Z,2.67
2024-02-16T16:32:09.871Z,2.83
2024-02-16T16:34:36.884Z,3.83
2024-02-16T16:37:03.547Z,2.53
2024-02-16T16:39:30.214Z,2.67
2024-02-16T16:41:57.031Z,2.65
2024-02-16T16:44:24.047Z,2.55
2024-02-16T16:46:50.682Z,3.28
2024-02-16T16:49:20.823Z,3.13
2024-02-16T16:51:47.555Z,3.20
2024-02-16T16:54:14.208Z,4.13
2024-02-16T16:56:40.778Z,4.50
2024-02-16T16:59:07.304Z,3.85
2024-02-16T17:01:33.969Z,3.10
2024-02-16T17:04:01.104Z,2.95
2024-02-16T17:06:28.911Z,3.35
2024-02-16T17:08:55.653Z,3.78
2024-02-16T17:11:24.048Z,2.80
2024-02-16T17:13:50.835Z,3.50
2024-02-16T17:16:17.316Z,4.18
2024-02-16T17:18:43.922Z,3.67
2024-02-16T17:21:11.066Z,3.47
2024-02-16T17:23:37.551Z,2.40
2024-02-16T17:26:05.215Z,3.70
2024-02-16T17:28:33.952Z,3.17
2024-02-16T17:31:00.518Z,2.97
2024-02-16T17:33:27.202Z,3.15
2024-02-16T17:35:53.952Z,2.95
2024-02-16T17:38:22.325Z,3.97
2024-02-16T17:40:48.777Z,3.28
2024-02-16T17:43:16.367Z,3.78
2024-02-16T17:45:43.789Z,2.88
2024-02-16T17:48:12.140Z,2.67
2024-02-16T17:50:38.992Z,2.65
2024-02-16T17:53:07.031Z,3.05
2024-02-16T17:55:35.128Z,3.05
2024-02-16T17:58:05.701Z,2.88
2024-02-16T18:00:32.281Z,2.20
2024-02-16T18:02:58.847Z,2.40
2024-02-16T18:05:25.295Z,2.13
2024-02-16T18:07:52.763Z,2.72
2024-02-16T18:10:19.690Z,2.45
2024-02-16T18:12:46.199Z,1.55
2024-02-16T18:15:14.003Z,2.05
2024-02-16T18:17:43.740Z,3.55
2024-02-16T18:20:13.386Z,2.85
2024-02-16T18:22:40.550Z,3.17
2024-02-16T18:25:07.583Z,2.78
2024-02-16T18:27:34.091Z,2.83
2024-02-16T18:30:00.756Z,2.65
2024-02-16T18:32:27.582Z,3.45
2024-02-16T18:34:54.292Z,3.58
2024-02-16T18:37:21.170Z,2.97
2024-02-16T18:39:47.673Z,3.28
2024-02-16T18:42:14.824Z,3.00
2024-02-16T18:44:42.019Z,2.95
2024-02-16T18:47:08.521Z,3.25
2024-02-16T18:49:35.375Z,3.60
2024-02-16T18:52:02.116Z,4.22
2024-02-16T18:54:28.624Z,4.35
2024-02-16T18:56:55.213Z,4.13
2024-02-16T18:59:21.749Z,4.45
2024-02-16T19:01:50.636Z,4.13
2024-02-16T19:04:17.552Z,3.88
2024-02-16T19:06:57.595Z,6.20
2024-02-16T19:09:29.925Z,5.13
2024-02-16T19:11:56.626Z,4.70
2024-02-16T19:14:24.906Z,4.97
2024-02-16T19:16:51.657Z,4.32
2024-02-16T19:19:18.345Z,4.32
2024-02-16T19:21:45.058Z,4.85
2024-02-16T19:24:11.629Z,4.82
2024-02-16T19:26:38.319Z,5.20
2024-02-16T19:29:05.011Z,5.07
2024-02-16T19:31:33.018Z,5.60
2024-02-16T19:33:59.911Z,4.43
2024-02-16T19:36:26.640Z,5.82
2024-02-16T19:38:53.474Z,4.63
2024-02-16T19:41:20.197Z,5.03
2024-02-16T19:43:46.797Z,4.75
2024-02-16T19:46:13.326Z,5.05
2024-02-16T19:48:40.802Z,4.47
2024-02-16T19:51:07.390Z,4.35
2024-02-16T19:53:50.939Z,3.50
2024-02-16T19:56:25.814Z,4.25
2024-02-16T19:58:52.315Z,3.85
2024-02-16T20:01:20.485Z,4.28
2024-02-16T20:03:47.114Z,4.82
2024-02-16T20:06:14.741Z,4.85
2024-02-16T20:09:49.385Z,5.72
2024-02-16T20:13:19.091Z,5.10
2024-02-16T20:15:51.997Z,5.05
2024-02-16T20:18:28.971Z,4.72
2024-02-16T20:20:58.669Z,4.07
2024-02-16T20:23:29.116Z,4.40
2024-02-16T20:25:59.349Z,4.53
2024-02-16T20:28:25.864Z,4.22
2024-02-16T20:30:52.341Z,3.28
2024-02-16T20:33:19.458Z,2.83
2024-02-16T20:35:47.739Z,3.70
2024-02-16T20:38:14.225Z,3.33
2024-02-16T20:40:40.723Z,3.10
2024-02-16T20:43:07.966Z,3.38
2024-02-16T20:45:34.599Z,3.78
2024-02-16T20:48:01.259Z,3.10
2024-02-16T20:50:27.901Z,3.25
2024-02-16T20:52:54.637Z,3.17
2024-02-16T20:55:24.568Z,3.55
2024-02-16T20:57:51.103Z,3.55
2024-02-16T21:00:18.019Z,3.92
2024-02-16T21:02:44.638Z,2.58
2024-02-16T21:05:11.425Z,3.45
2024-02-16T21:07:38.055Z,2.50
2024-02-16T21:10:05.763Z,2.83
2024-02-16T21:12:32.428Z,3.60
2024-02-16T21:14:59.101Z,3.58
2024-02-16T21:17:25.630Z,4.00
2024-02-16T21:19:52.949Z,3.42
2024-02-16T21:22:19.424Z,3.20
2024-02-16T21:24:45.953Z,2.80
2024-02-16T21:27:12.672Z,2.85
2024-02-16T21:29:39.290Z,2.72
2024-02-16T21:32:05.871Z,3.70
2024-02-16T21:34:32.551Z,3.05
2024-02-16T21:36:59.323Z,2.65
2024-02-16T21:39:26.010Z,2.83
2024-02-16T21:41:52.878Z,3.20
2024-02-16T21:44:19.421Z,3.22
2024-02-16T21:46:46.263Z,3.00
2024-02-16T21:49:12.922Z,3.28
2024-02-16T21:51:40.646Z,4.55
2024-02-16T21:54:08.265Z,4.03
2024-02-16T21:56:38.567Z,3.75
2024-02-16T21:59:05.469Z,3.65
2024-02-16T22:01:32.122Z,4.10
2024-02-16T22:03:59.290Z,3.28
2024-02-16T22:06:26.635Z,3.63
2024-02-16T22:08:54.408Z,2.90
2024-02-16T22:11:24.505Z,3.00
2024-02-16T22:13:51.412Z,2.58
2024-02-16T22:16:19.184Z,3.78
2024-02-16T22:18:46.521Z,3.38
2024-02-16T22:21:14.121Z,3.42
2024-02-16T22:23:41.066Z,4.18
2024-02-16T22:26:07.965Z,3.50
2024-02-16T22:28:34.793Z,3.47
2024-02-16T22:31:01.869Z,3.10
2024-02-16T22:33:29.344Z,3.45
2024-02-16T22:35:57.288Z,3.95
2024-02-16T22:38:23.855Z,3.17
2024-02-16T22:40:51.310Z,2.58
2024-02-16T22:43:18.304Z,2.97
2024-02-16T22:45:45.170Z,3.13
2024-02-16T22:48:14.913Z,2.70
2024-02-16T22:50:42.644Z,3.38
2024-02-16T22:53:09.268Z,2.83
2024-02-16T22:55:36.111Z,2.83
2024-02-16T22:58:03.502Z,4.10
2024-02-16T23:00:34.213Z,3.17
2024-02-16T23:03:02.551Z,2.90
2024-02-16T23:05:29.943Z,3.15
2024-02-16T23:07:57.025Z,2.75
2024-02-16T23:10:23.729Z,3.03
2024-02-16T23:12:50.482Z,2.65
2024-02-16T23:15:17.580Z,3.63
2024-02-16T23:17:44.890Z,1.95
2024-02-16T23:20:12.313Z,3.10
2024-02-16T23:22:57.611Z,2.22
2024-02-16T23:25:24.195Z,2.97
2024-02-16T23:27:51.293Z,2.35
2024-02-16T23:30:17.961Z,3.03
2024-02-16T23:32:44.512Z,2.50
2024-02-16T23:35:11.336Z,2.63
2024-02-16T23:37:38.155Z,2.83
2024-02-16T23:40:05.452Z,2.35
2024-02-16T23:42:32.535Z,3.22
2024-02-16T23:44:59.357Z,3.17
2024-02-16T23:47:26.140Z,3.17
2024-02-16T23:49:53.111Z,3.63
2024-02-16T23:52:19.663Z,2.72
2024-02-16T23:54:46.268Z,4.05
2024-02-16T23:57:12.968Z,4.10
2024-02-16T23:59:39.454Z,3.35
